Time;durP1;ratioP1;P1;durP2;ratioP2;P2;SDS_P1;SDS_P2;PMS_P1;PMS_P2;Temp;Humidity;BMP_temperature;BMP_pressure;BME280_temperature;BME280_humidity;BME280_pressure;Samples;Min_cycle;Max_cycle;Signal;HPM_P1;HPM_P2
2022/05/11 00:01:11;;;;;;;10.27;9.27;;;20.30;99.90;;;;;;5080267;28;20452;-84
2022/05/11 00:03:38;;;;;;;12.33;7.90;;;20.50;99.90;;;;;;5079893;28;20433;-84
2022/05/11 00:06:05;;;;;;;7.77;7.07;;;20.50;99.90;;;;;;5079629;28;20448;-84
2022/05/11 00:08:32;;;;;;;7.80;7.10;;;20.40;99.90;;;;;;5087277;28;20449;-84
2022/05/11 00:10:58;;;;;;;8.47;7.70;;;20.20;99.90;;;;;;5093835;28;20449;-85
2022/05/11 00:13:28;;;;;;;10.20;9.13;;;20.20;99.90;;;;;;5095005;28;20471;-85
2022/05/11 00:15:55;;;;;;;14.83;9.50;;;20.10;99.90;;;;;;5090873;28;20489;-85
2022/05/11 00:18:21;;;;;;;8.80;7.97;;;19.90;99.90;;;;;;5092082;28;20440;-85
2022/05/11 00:20:48;;;;;;;10.50;9.47;;;19.90;99.90;;;;;;5089461;28;20453;-85
2022/05/11 00:23:14;;;;;;;9.50;8.50;;;19.60;99.90;;;;;;5082472;28;20421;-85
2022/05/11 00:25:41;;;;;;;8.77;7.87;;;19.50;99.90;;;;;;5079917;28;20473;-84
2022/05/11 00:28:08;;;;;;;9.63;8.73;;;19.40;99.90;;;;;;5078729;28;20499;-84
2022/05/11 00:30:35;;;;;;;9.27;7.87;;;19.40;99.90;;;;;;5081614;28;20456;-85
2022/05/11 00:33:03;;;;;;;9.97;7.53;;;19.30;99.90;;;;;;5078006;28;20473;-85
2022/05/11 00:35:33;;;;;;;9.90;9.00;;;19.20;99.90;;;;;;5078126;28;20995;-84
2022/05/11 00:37:59;;;;;;;9.37;8.57;;;19.00;99.90;;;;;;5078663;28;20455;-84
2022/05/11 00:40:26;;;;;;;12.17;10.87;;;19.00;99.90;;;;;;5093551;28;20445;-84
2022/05/11 00:42:53;;;;;;;12.10;10.47;;;19.00;99.90;;;;;;5088418;28;20451;-84
2022/05/11 00:45:20;;;;;;;13.93;12.20;;;19.00;99.90;;;;;;5080664;28;20445;-84
2022/05/11 00:47:52;;;;;;;10.80;8.60;;;19.00;99.90;;;;;;5079167;28;20453;-84
2022/05/11 00:50:21;;;;;;;8.30;7.50;;;18.80;99.90;;;;;;5079238;28;20445;-84
2022/05/11 00:52:53;;;;;;;10.37;8.97;;;18.90;99.90;;;;;;5079023;28;20471;-83
2022/05/11 00:55:25;;;;;;;9.23;8.43;;;18.50;99.90;;;;;;5078020;28;20460;-84
2022/05/11 00:57:58;;;;;;;12.50;10.73;;;18.70;99.90;;;;;;5081224;28;20433;-84
2022/05/11 01:00:27;;;;;;;8.90;8.10;;;18.60;99.90;;;;;;5083506;28;20445;-84
2022/05/11 01:03:05;;;;;;;14.30;9.00;;;18.60;99.90;;;;;;5084923;28;20475;-84
2022/05/11 01:05:31;;;;;;;9.73;8.73;;;18.40;1.00;;;;;;5089949;28;20472;-84
2022/05/11 01:07:58;;;;;;;9.57;8.60;;;18.40;1.00;;;;;;5081583;28;20467;-84
2022/05/11 01:10:27;;;;;;;11.47;9.50;;;18.40;1.00;;;;;;5078372;28;20511;-84
2022/05/11 01:12:57;;;;;;;9.10;8.20;;;18.40;1.00;;;;;;5079742;28;20455;-85
2022/05/11 01:15:25;;;;;;;8.90;8.03;;;18.30;1.00;;;;;;5078491;28;20483;-85
2022/05/11 01:17:52;;;;;;;11.10;8.60;;;18.30;1.00;;;;;;5077318;28;20859;-85
2022/05/11 01:20:22;;;;;;;9.27;8.47;;;18.30;1.00;;;;;;5078452;28;20433;-85
2022/05/11 01:22:54;;;;;;;9.50;8.70;;;18.20;1.00;;;;;;5084925;28;20448;-85
2022/05/11 01:25:23;;;;;;;9.43;8.50;;;18.00;1.00;;;;;;5092694;28;20421;-85
2022/05/11 01:27:49;;;;;;;8.33;7.50;;;18.10;1.00;;;;;;5094754;28;20455;-85
2022/05/11 01:30:18;;;;;;;9.70;8.73;;;18.10;1.00;;;;;;5094030;28;20449;-84
2022/05/11 01:33:15;;;;;;;9.40;8.47;;;18.10;1.00;;;;;;5083407;28;20509;-85
2022/05/11 01:35:50;;;;;;;10.23;8.27;;;18.20;1.00;;;;;;5080233;28;20484;-84
2022/05/11 01:38:31;;;;;;;8.37;7.53;;;18.10;1.00;;;;;;5077166;28;20463;-86
2022/05/11 01:40:59;;;;;;;12.27;10.23;;;18.10;1.00;;;;;;5079820;28;20452;-84
2022/05/11 01:43:32;;;;;;;10.37;9.40;;;18.10;1.00;;;;;;5076297;28;20437;-86
2022/05/11 01:45:59;;;;;;;9.23;8.43;;;18.00;1.00;;;;;;5077120;28;20555;-86
2022/05/11 01:48:26;;;;;;;11.53;9.47;;;;;;;;;;5078430;28;20554;-84
2022/05/11 01:50:54;;;;;;;9.23;8.27;;;18.00;1.00;;;;;;5077379;28;20467;-85
2022/05/11 01:53:22;;;;;;;8.73;7.73;;;18.10;1.00;;;;;;5076901;28;20487;-85
2022/05/11 01:55:48;;;;;;;8.53;7.80;;;18.00;1.00;;;;;;5078803;28;20504;-85
2022/05/11 01:58:18;;;;;;;8.50;7.80;;;18.00;1.00;;;;;;5078983;28;20878;-85
2022/05/11 02:00:47;;;;;;;9.50;8.63;;;18.00;1.00;;;;;;5078151;28;20817;-85
2022/05/11 02:03:17;;;;;;;10.17;9.00;;;18.00;1.00;;;;;;5081902;28;20482;-84
2022/05/11 02:08:28;;;;;;;9.60;8.70;;;18.00;1.00;;;;;;5084104;28;20473;-85
2022/05/11 02:10:55;;;;;;;9.43;8.53;;;17.90;1.00;;;;;;5085975;28;20938;-86
2022/05/11 02:13:23;;;;;;;8.67;7.90;;;17.90;1.00;;;;;;5085070;28;20485;-85
2022/05/11 02:15:52;;;;;;;9.23;8.43;;;17.90;1.00;;;;;;5082056;28;20460;-85
2022/05/11 02:18:19;;;;;;;7.70;7.10;;;;;;;;;;5081715;28;20488;-85
2022/05/11 02:20:46;;;;;;;9.37;8.47;;;17.90;1.00;;;;;;5080893;28;20478;-85
2022/05/11 02:23:15;;;;;;;8.20;7.40;;;17.80;1.00;;;;;;5081058;28;20444;-85
2022/05/11 02:25:45;;;;;;;8.60;7.80;;;17.70;1.00;;;;;;5082419;28;20471;-85
2022/05/11 02:28:12;;;;;;;8.23;7.40;;;17.70;1.00;;;;;;5081597;28;20445;-85
2022/05/11 02:30:41;;;;;;;8.30;7.50;;;17.70;1.00;;;;;;5081621;28;20455;-85
2022/05/11 02:33:07;;;;;;;9.40;7.80;;;17.60;1.00;;;;;;5081350;28;20452;-85
2022/05/11 02:35:35;;;;;;;9.27;8.30;;;17.60;1.00;;;;;;5080607;28;20468;-85
2022/05/11 02:38:04;;;;;;;9.10;8.30;;;17.60;1.00;;;;;;5080398;28;20433;-85
2022/05/11 02:40:33;;;;;;;9.50;8.20;;;17.80;1.00;;;;;;5082297;28;20817;-85
2022/05/11 02:43:01;;;;;;;11.20;8.20;;;17.60;1.00;;;;;;5099521;28;20458;-85
2022/05/11 02:45:29;;;;;;;8.60;7.73;;;17.90;1.00;;;;;;5102057;28;20507;-85
2022/05/11 02:47:57;;;;;;;8.20;7.40;;;17.60;1.00;;;;;;5102220;28;20480;-85
2022/05/11 02:50:27;;;;;;;10.87;8.23;;;17.60;1.00;;;;;;5102059;28;20425;-85
2022/05/11 02:52:54;;;;;;;8.00;7.10;;;17.60;1.00;;;;;;5102092;28;20446;-85
2022/05/11 02:55:21;;;;;;;8.07;7.27;;;17.60;1.00;;;;;;5101780;28;20477;-84
2022/05/11 02:57:47;;;;;;;9.50;8.53;;;17.70;1.00;;;;;;5091964;28;20444;-85
2022/05/11 03:00:17;;;;;;;8.13;7.20;;;17.60;1.00;;;;;;5087887;28;20475;-85
2022/05/11 03:02:45;;;;;;;10.90;7.13;;;;;;;;;;5089236;28;20475;-85
2022/05/11 03:05:14;;;;;;;7.87;7.20;;;17.50;1.00;;;;;;5090735;28;20550;-85
2022/05/11 03:07:41;;;;;;;7.50;6.90;;;17.50;1.00;;;;;;5089438;28;20471;-85
2022/05/11 03:10:09;;;;;;;10.00;7.33;;;17.50;1.00;;;;;;5092687;28;20445;-85
2022/05/11 03:12:36;;;;;;;7.10;6.60;;;17.40;1.00;;;;;;5095556;28;20449;-85
2022/05/11 03:15:05;;;;;;;9.30;7.40;;;17.40;1.00;;;;;;5097994;28;20464;-85
2022/05/11 03:17:32;;;;;;;7.90;6.93;;;17.50;1.00;;;;;;5097264;28;20528;-84
2022/05/11 03:19:58;;;;;;;7.97;7.27;;;17.40;1.00;;;;;;5094005;28;20465;-85
2022/05/11 03:22:26;;;;;;;8.07;7.33;;;17.40;1.00;;;;;;5096928;28;20441;-84
2022/05/11 03:24:53;;;;;;;9.23;7.90;;;17.40;1.00;;;;;;5099313;28;20433;-85
2022/05/11 03:27:19;;;;;;;8.83;8.03;;;17.30;1.00;;;;;;5098554;28;20483;-84
2022/05/11 03:29:47;;;;;;;9.70;7.80;;;17.30;1.00;;;;;;5097368;28;20449;-85
2022/05/11 03:34:58;;;;;;;9.97;9.00;;;17.30;1.00;;;;;;5093998;28;20830;-85
2022/05/11 03:37:27;;;;;;;9.70;8.20;;;17.20;1.00;;;;;;5094044;28;20469;-85
2022/05/11 03:39:54;;;;;;;9.50;8.20;;;17.20;14.80;;;;;;5092282;28;20459;-85
2022/05/11 03:42:28;;;;;;;9.37;8.47;;;17.20;10.80;;;;;;5098492;28;20524;-85
2022/05/11 03:44:55;;;;;;;9.43;8.53;;;16.90;52.00;;;;;;5097259;28;20429;-85
2022/05/11 03:47:21;;;;;;;10.37;7.57;;;17.20;41.50;;;;;;5097809;28;20498;-85
2022/05/11 03:49:48;;;;;;;9.57;8.13;;;17.30;54.80;;;;;;5096174;28;20471;-85
2022/05/11 03:52:17;;;;;;;9.30;8.50;;;17.10;51.00;;;;;;5099444;28;20429;-85
2022/05/11 03:54:45;;;;;;;10.17;8.77;;;17.20;36.00;;;;;;5095846;28;20488;-85
2022/05/11 03:57:12;;;;;;;9.43;8.53;;;17.20;33.00;;;;;;5083732;28;20530;-85
2022/05/11 03:59:39;;;;;;;9.20;8.40;;;;;;;;;;5080529;28;20447;-84
2022/05/11 04:02:06;;;;;;;10.30;9.20;;;;;;;;;;5081914;28;20448;-85
2022/05/11 04:04:33;;;;;;;9.43;8.53;;;17.30;8.00;;;;;;5080701;28;20467;-85
2022/05/11 04:06:59;;;;;;;10.33;9.07;;;17.40;44.30;;;;;;5092000;28;20465;-84
2022/05/11 04:09:26;;;;;;;10.17;9.27;;;17.40;53.00;;;;;;5098551;28;20440;-84
2022/05/11 04:11:54;;;;;;;9.53;8.33;;;17.40;36.10;;;;;;5097770;28;20435;-84
2022/05/11 04:14:21;;;;;;;10.20;9.30;;;17.40;37.80;;;;;;5084383;28;20476;-86
2022/05/11 04:16:53;;;;;;;9.80;8.90;;;17.40;94.60;;;;;;5083238;28;20995;-85
2022/05/11 04:19:20;;;;;;;11.10;8.23;;;;;;;;;;5081533;28;20871;-85
2022/05/11 04:21:47;;;;;;;12.57;9.17;;;;;;;;;;5081991;28;20796;-85
2022/05/11 04:24:13;;;;;;;11.17;9.00;;;17.30;93.50;;;;;;5081509;28;20948;-85
2022/05/11 04:26:40;;;;;;;10.43;9.33;;;17.30;99.90;;;;;;5081626;28;20893;-85
2022/05/11 04:29:08;;;;;;;10.07;9.17;;;17.30;60.50;;;;;;5079668;28;20448;-85
2022/05/11 04:31:35;;;;;;;15.00;10.57;;;17.40;99.90;;;;;;5087098;28;20456;-84
2022/05/11 04:34:01;;;;;;;12.10;10.90;;;;;;;;;;5095890;28;20445;-84
2022/05/11 04:36:30;;;;;;;14.40;13.00;;;17.30;99.90;;;;;;5081250;28;20481;-85
2022/05/11 04:38:56;;;;;;;11.50;9.32;;;17.50;99.90;;;;;;5086086;28;20430;-84
2022/05/11 04:41:23;;;;;;;11.90;10.70;;;17.30;99.90;;;;;;5094985;28;20203;-84
2022/05/11 04:43:50;;;;;;;11.80;10.60;;;;;;;;;;5095496;28;20437;-85
2022/05/11 04:46:18;;;;;;;11.40;10.30;;;17.60;99.90;;;;;;5085212;28;20809;-85
2022/05/11 04:48:45;;;;;;;11.17;9.90;;;17.30;99.90;;;;;;5082460;28;20440;-85
2022/05/11 04:51:12;;;;;;;10.47;9.47;;;17.30;99.90;;;;;;5080785;28;20547;-84
2022/05/11 04:53:40;;;;;;;10.33;9.30;;;17.20;99.90;;;;;;5081897;28;20985;-85
2022/05/11 04:56:06;;;;;;;9.73;8.83;;;17.20;99.90;;;;;;5080593;28;20484;-85
2022/05/11 04:58:33;;;;;;;10.80;9.70;;;17.20;99.90;;;;;;5081184;28;20444;-85
2022/05/11 05:01:00;;;;;;;10.93;10.03;;;;;;;;;;5080794;28;20459;-85
2022/05/11 05:03:28;;;;;;;11.13;10.07;;;17.20;99.90;;;;;;5081436;28;20452;-84
2022/05/11 05:05:55;;;;;;;10.47;9.37;;;17.20;99.90;;;;;;5081174;28;20461;-85
2022/05/11 05:08:23;;;;;;;9.67;8.77;;;;;;;;;;5082120;28;20517;-85
2022/05/11 05:10:49;;;;;;;11.33;9.37;;;17.20;99.90;;;;;;5092073;28;20550;-84
2022/05/11 05:13:16;;;;;;;11.30;10.20;;;;;;;;;;5092084;28;20448;-84
2022/05/11 05:15:43;;;;;;;13.27;11.93;;;;;;;;;;5091439;28;20492;-84
2022/05/11 05:18:10;;;;;;;11.37;10.37;;;17.40;58.10;;;;;;5091498;28;20479;-84
2022/05/11 05:20:38;;;;;;;10.60;9.67;;;17.50;58.80;;;;;;5091265;28;20460;-84
2022/05/11 05:23:05;;;;;;;12.40;11.33;;;17.60;99.90;;;;;;5092403;28;20445;-84
2022/05/11 05:25:32;;;;;;;15.53;10.60;;;17.50;99.90;;;;;;5092610;28;20449;-84
2022/05/11 05:31:04;;;;;;;14.50;11.63;;;17.50;99.70;;;;;;5093912;28;20471;-85
2022/05/11 05:33:31;;;;;;;14.30;10.73;;;17.80;97.80;;;;;;5092872;28;20458;-84
2022/05/11 05:36:00;;;;;;;12.90;11.20;;;17.60;99.40;;;;;;5092787;28;20757;-84
2022/05/11 05:38:27;;;;;;;12.63;10.83;;;17.50;76.40;;;;;;5093863;28;20444;-84
2022/05/11 05:40:54;;;;;;;11.63;10.57;;;17.60;19.10;;;;;;5092361;28;20947;-84
2022/05/11 05:43:20;;;;;;;10.70;9.70;;;17.60;9.50;;;;;;5093916;28;20452;-84
2022/05/11 05:45:49;;;;;;;14.13;10.57;;;17.60;41.20;;;;;;5089784;28;20468;-85
2022/05/11 05:48:15;;;;;;;11.13;9.73;;;17.60;38.60;;;;;;5087503;28;20441;-84
2022/05/11 05:50:42;;;;;;;11.90;10.27;;;17.60;61.70;;;;;;5089637;28;20452;-84
2022/05/11 05:53:10;;;;;;;12.63;11.20;;;17.70;22.20;;;;;;5093505;28;20452;-85
2022/05/11 05:55:36;;;;;;;17.27;11.70;;;17.70;5.80;;;;;;5094161;28;20510;-85
2022/05/11 05:58:05;;;;;;;16.27;10.87;;;17.70;25.40;;;;;;5095754;28;20441;-84
2022/05/11 06:00:32;;;;;;;11.67;10.53;;;;;;;;;;5082290;28;20980;-85
2022/05/11 06:02:59;;;;;;;14.47;12.80;;;17.60;99.90;;;;;;5081160;28;20460;-84
2022/05/11 06:05:28;;;;;;;13.23;12.03;;;17.80;99.90;;;;;;5082954;28;20449;-84
2022/05/11 06:07:55;;;;;;;15.03;12.90;;;17.60;99.90;;;;;;5084535;28;20453;-85
2022/05/11 06:10:23;;;;;;;13.13;11.50;;;17.60;99.90;;;;;;5081725;28;20441;-85
2022/05/11 06:12:50;;;;;;;14.27;12.40;;;17.60;99.90;;;;;;5090353;28;20433;-84
2022/05/11 06:15:16;;;;;;;13.23;11.83;;;17.60;99.90;;;;;;5091733;28;20506;-84
2022/05/11 06:17:43;;;;;;;14.20;12.70;;;17.50;99.90;;;;;;5092939;28;20447;-84
2022/05/11 06:20:11;;;;;;;13.40;11.97;;;17.50;99.90;;;;;;5086572;28;20452;-84
2022/05/11 06:22:37;;;;;;;13.83;12.43;;;17.50;99.90;;;;;;5081097;28;20454;-85
2022/05/11 06:25:06;;;;;;;12.90;11.53;;;17.50;99.90;;;;;;5080481;28;20444;-85
2022/05/11 06:27:34;;;;;;;14.33;12.83;;;17.50;99.90;;;;;;5081785;28;20463;-84
2022/05/11 06:30:01;;;;;;;11.37;10.37;;;17.40;99.90;;;;;;5080536;28;20441;-85
2022/05/11 06:32:28;;;;;;;12.50;11.40;;;17.30;99.90;;;;;;5078627;28;20506;-85
2022/05/11 06:34:56;;;;;;;12.83;11.40;;;17.30;99.90;;;;;;5079551;28;20472;-85
2022/05/11 06:37:24;;;;;;;13.80;12.17;;;17.30;99.90;;;;;;5081746;28;20853;-84
2022/05/11 06:39:51;;;;;;;15.67;14.23;;;;;;;;;;5081930;28;20788;-84
2022/05/11 06:42:18;;;;;;;13.47;12.37;;;17.30;99.90;;;;;;5082415;28;20469;-84
2022/05/11 06:44:47;;;;;;;21.30;14.10;;;17.50;99.90;;;;;;5081745;28;20551;-85
2022/05/11 06:47:13;;;;;;;12.70;11.60;;;17.50;99.90;;;;;;5092921;28;20489;-84
2022/05/11 06:49:40;;;;;;;14.07;12.70;;;17.40;99.90;;;;;;5096324;28;20468;-85
2022/05/11 06:52:07;;;;;;;13.87;12.57;;;17.60;99.90;;;;;;5096686;28;20429;-85
2022/05/11 07:00:06;;;;;;;14.13;12.73;;;17.90;99.90;;;;;;5085382;28;20424;-85
2022/05/11 07:02:34;;;;;;;11.83;10.73;;;17.90;99.90;;;;;;5083153;28;20448;-85
2022/05/11 07:05:01;;;;;;;13.40;11.90;;;17.90;99.90;;;;;;5082154;28;20447;-86
2022/05/11 07:07:28;;;;;;;12.83;11.50;;;17.90;99.90;;;;;;5083032;28;20885;-85
2022/05/11 07:09:55;;;;;;;11.50;10.40;;;18.10;99.90;;;;;;5082507;28;20501;-84
2022/05/11 07:12:25;;;;;;;16.33;12.40;;;;;;;;;;5082316;28;20449;-85
2022/05/11 07:14:53;;;;;;;15.23;11.30;;;18.10;23.10;;;;;;5082378;28;20465;-85
2022/05/11 07:17:32;;;;;;;12.17;10.20;;;18.10;14.50;;;;;;5081914;28;20464;-85
2022/05/11 07:19:59;;;;;;;13.63;11.53;;;18.20;1.00;;;;;;5095053;28;20432;-85
2022/05/11 07:22:27;;;;;;;11.13;9.00;;;18.50;1.00;;;;;;5095220;28;20441;-85
2022/05/11 07:24:54;;;;;;;11.07;8.50;;;18.40;1.00;;;;;;5095130;28;20471;-85
2022/05/11 07:27:21;;;;;;;8.70;8.00;;;18.40;1.00;;;;;;5084512;28;20494;-85
2022/05/11 07:29:48;;;;;;;9.30;8.27;;;18.40;1.00;;;;;;5085671;28;20468;-85
2022/05/11 07:32:15;;;;;;;8.50;7.70;;;18.40;1.00;;;;;;5096580;28;20445;-84
2022/05/11 07:34:43;;;;;;;9.27;8.37;;;18.60;1.00;;;;;;5098206;28;20441;-85
2022/05/11 07:37:09;;;;;;;8.63;7.93;;;18.60;1.00;;;;;;5117413;22;20481;-81
2022/05/11 07:39:36;;;;;;;7.80;7.00;;;18.60;1.00;;;;;;5093397;28;20441;-79
2022/05/11 07:42:03;;;;;;;8.40;7.70;;;18.60;1.00;;;;;;5087512;28;20445;-82
2022/05/11 07:44:30;;;;;;;9.67;8.00;;;18.80;1.00;;;;;;5081762;28;20425;-83
2022/05/11 07:46:57;;;;;;;9.67;8.60;;;19.00;1.00;;;;;;5081685;28;20457;-83
2022/05/11 07:49:23;;;;;;;8.43;7.67;;;19.30;1.00;;;;;;5082164;28;20436;-83
2022/05/11 07:51:52;;;;;;;7.67;6.90;;;19.40;1.00;;;;;;5081698;28;20444;-84
2022/05/11 07:54:19;;;;;;;9.00;8.10;;;20.00;1.00;;;;;;5080752;28;20452;-84
2022/05/11 08:02:15;;;;;;;8.73;8.00;;;19.70;1.00;;;;;;5081159;28;20782;-82
2022/05/11 08:04:41;;;;;;;7.50;6.90;;;19.60;1.00;;;;;;5082376;28;20645;-82
2022/05/11 08:07:10;;;;;;;6.80;6.20;;;19.80;1.00;;;;;;5081626;28;20473;-84
2022/05/11 08:09:37;;;;;;;8.43;7.30;;;19.90;99.90;;;;;;5084546;28;20484;-82
2022/05/11 08:12:04;;;;;;;7.63;7.03;;;20.10;1.00;;;;;;5081215;28;20865;-83
2022/05/11 08:14:31;;;;;;;9.20;8.33;;;20.30;1.00;;;;;;5081395;28;20449;-84
2022/05/11 08:16:59;;;;;;;7.80;7.10;;;20.30;1.00;;;;;;5084542;28;20546;-86
2022/05/11 08:19:28;;;;;;;8.53;7.50;;;20.80;99.90;;;;;;5094193;28;20428;-81
2022/05/11 08:21:56;;;;;;;9.53;7.40;;;20.80;99.90;;;;;;5098000;28;20441;-82
2022/05/11 08:24:26;;;;;;;8.60;7.73;;;20.80;99.90;;;;;;5096024;28;20514;-82
2022/05/11 08:26:52;;;;;;;9.10;6.90;;;20.80;99.90;;;;;;5094668;28;20468;-83
2022/05/11 08:34:47;;;;;;;9.23;7.83;;;21.20;8.80;;;;;;5083360;28;20424;-82
2022/05/11 08:37:14;;;;;;;9.83;8.93;;;21.20;1.00;;;;;;5084880;28;20493;-82
2022/05/11 08:39:43;;;;;;;9.57;8.20;;;21.00;1.00;;;;;;5086771;28;20512;-83
2022/05/11 08:42:11;;;;;;;9.20;8.50;;;21.10;17.30;;;;;;5085220;28;20449;-83
2022/05/11 08:44:45;;;;;;;13.80;9.23;;;21.20;55.80;;;;;;5082003;28;20865;-83
2022/05/11 08:47:16;;;;;;;16.07;8.53;;;21.20;99.90;;;;;;5081540;28;20531;-83
2022/05/11 08:49:52;;;;;;;10.33;8.13;;;21.40;1.00;;;;;;5080465;28;20444;-84
2022/05/11 08:52:28;;;;;;;15.57;10.73;;;21.40;1.00;;;;;;5081059;28;20433;-82
2022/05/11 08:55:01;;;;;;;9.37;8.47;;;21.30;99.90;;;;;;5080021;28;20946;-82
2022/05/11 08:57:28;;;;;;;8.43;7.63;;;21.20;1.00;;;;;;5080802;28;20460;-82
2022/05/11 09:00:05;;;;;;;9.50;8.40;;;21.30;99.90;;;;;;5080520;28;20549;-83
2022/05/11 09:02:42;;;;;;;10.20;9.30;;;21.40;1.00;;;;;;5082256;28;20508;-84
2022/05/11 09:05:10;;;;;;;9.67;8.77;;;21.60;1.00;;;;;;5080984;28;20445;-83
2022/05/11 09:07:40;;;;;;;10.47;9.57;;;21.70;99.90;;;;;;5080919;28;20846;-83
2022/05/11 09:10:09;;;;;;;10.50;9.60;;;21.60;99.90;;;;;;5080110;28;20453;-82
2022/05/11 09:12:37;;;;;;;10.77;9.67;;;21.50;99.90;;;;;;5080160;28;20429;-83
2022/05/11 09:15:05;;;;;;;11.67;10.50;;;21.80;1.00;;;;;;5079318;28;20447;-83
2022/05/11 09:17:34;;;;;;;11.30;10.17;;;21.90;1.00;;;;;;5080024;28;20511;-82
2022/05/11 09:20:05;;;;;;;9.40;8.70;;;22.10;1.00;;;;;;5078917;28;20475;-84
2022/05/11 09:22:34;;;;;;;11.20;10.27;;;22.30;99.90;;;;;;5079158;28;20433;-84
2022/05/11 09:25:05;;;;;;;10.30;9.30;;;22.20;1.00;;;;;;5082595;28;20546;-83
2022/05/11 09:27:36;;;;;;;11.93;9.40;;;22.20;99.90;;;;;;5080932;28;20500;-83
2022/05/11 09:30:06;;;;;;;9.87;9.10;;;22.50;99.90;;;;;;5079584;28;20448;-83
2022/05/11 09:32:37;;;;;;;11.13;10.13;;;22.50;99.90;;;;;;5087058;28;20477;-82
2022/05/11 09:35:26;;;;;;;12.47;10.03;;;22.50;1.00;;;;;;5093855;28;20430;-83
2022/05/11 09:38:01;;;;;;;12.00;10.60;;;22.60;99.90;;;;;;5082259;28;20469;-84
2022/05/11 09:40:29;;;;;;;11.10;10.30;;;22.60;1.00;;;;;;5081223;28;20425;-84
2022/05/11 09:43:01;;;;;;;11.77;10.77;;;22.70;1.00;;;;;;5084164;28;21014;-82
2022/05/11 09:45:43;;;;;;;12.47;11.33;;;22.80;99.90;;;;;;5080534;28;20429;-84
2022/05/11 09:48:19;;;;;;;12.33;11.30;;;22.80;99.90;;;;;;5080376;28;20456;-83
2022/05/11 09:50:47;;;;;;;13.63;11.97;;;23.00;1.00;;;;;;5079453;28;20482;-83
2022/05/11 09:53:31;;;;;;;13.13;11.80;;;23.20;1.00;;;;;;5080726;28;20528;-84
2022/05/11 09:56:11;;;;;;;12.93;11.73;;;23.50;1.00;;;;;;5080633;28;20465;-85
2022/05/11 09:58:39;;;;;;;14.53;13.20;;;23.20;1.00;;;;;;5082940;28;20436;-83
2022/05/11 10:01:12;;;;;;;13.30;12.03;;;23.40;1.00;;;;;;5082963;28;20438;-82
2022/05/11 10:03:45;;;;;;;9.90;9.10;;;23.60;1.00;;;;;;5086164;28;20445;-82
2022/05/11 10:06:13;;;;;;;11.17;10.27;;;23.70;1.00;;;;;;5095048;28;20468;-82
2022/05/11 10:08:44;;;;;;;12.83;11.63;;;23.90;99.90;;;;;;5094376;28;20444;-80
2022/05/11 10:11:18;;;;;;;11.47;10.47;;;23.90;99.90;;;;;;5095087;28;20449;-82
2022/05/11 10:13:53;;;;;;;10.63;9.43;;;23.90;99.90;;;;;;5095703;28;20942;-83
2022/05/11 10:22:12;;;;;;;13.10;11.80;;;24.00;99.90;;;;;;5096878;28;20408;-82
2022/05/11 10:25:01;;;;;;;23.47;19.93;;;23.90;99.90;;;;;;5098395;28;20887;-82
2022/05/11 10:27:34;;;;;;;21.10;19.03;;;24.00;99.90;;;;;;5096400;28;20495;-83
2022/05/11 10:30:11;;;;;;;22.77;18.20;;;24.20;99.90;;;;;;5098639;28;20409;-82
2022/05/11 10:32:51;;;;;;;18.93;16.50;;;24.30;99.90;;;;;;5099778;28;20409;-82
2022/05/11 10:35:22;;;;;;;12.60;11.50;;;24.40;99.90;;;;;;5099017;28;20488;-81
2022/05/11 10:38:04;;;;;;;9.00;8.10;;;24.50;99.90;;;;;;5098923;28;20480;-83
2022/05/11 10:40:39;;;;;;;13.10;10.67;;;24.50;99.90;;;;;;5095650;28;20429;-83
2022/05/11 10:43:19;;;;;;;13.23;8.93;;;24.60;99.90;;;;;;5096774;28;20432;-82
2022/05/11 10:45:53;;;;;;;9.93;9.03;;;24.70;99.90;;;;;;5098955;28;20432;-82
2022/05/11 10:48:36;;;;;;;8.83;7.47;;;24.80;99.90;;;;;;5098990;28;20456;-82
2022/05/11 10:51:11;;;;;;;14.53;8.47;;;25.00;99.90;;;;;;5099347;28;20412;-82
2022/05/11 10:53:43;;;;;;;8.37;7.57;;;25.10;99.90;;;;;;5100859;28;20529;-82
2022/05/11 10:56:29;;;;;;;8.07;7.13;;;25.20;99.90;;;;;;5100279;28;20478;-84
2022/05/11 10:59:34;;;;;;;8.37;7.70;;;25.00;99.90;;;;;;5101178;28;20416;-82
2022/05/11 11:02:25;;;;;;;12.83;9.60;;;25.10;99.90;;;;;;5100432;28;20416;-83
2022/05/11 11:05:01;;;;;;;12.20;9.13;;;25.10;99.90;;;;;;5100618;28;20429;-83
2022/05/11 11:07:36;;;;;;;9.00;8.00;;;25.00;99.90;;;;;;5098958;28;20447;-82
2022/05/11 11:10:23;;;;;;;9.93;7.23;;;25.00;99.90;;;;;;5098655;28;20435;-82
2022/05/11 11:13:34;;;;;;;8.00;7.40;;;25.20;99.90;;;;;;5099028;28;20790;-82
2022/05/11 11:16:03;;;;;;;10.20;6.73;;;25.10;99.90;;;;;;5096925;28;20492;-83
2022/05/11 11:18:34;;;;;;;8.63;7.93;;;25.00;99.90;;;;;;5098878;28;20531;-81
2022/05/11 11:21:02;;;;;;;10.37;6.13;;;25.00;99.90;;;;;;5099073;28;20425;-82
2022/05/11 11:23:32;;;;;;;9.00;6.00;;;25.10;99.90;;;;;;5099077;28;20436;-83
2022/05/11 11:26:01;;;;;;;8.60;6.23;;;25.20;99.90;;;;;;5098788;28;20467;-84
2022/05/11 11:28:30;;;;;;;7.47;6.77;;;25.30;99.90;;;;;;5098537;28;20436;-82
2022/05/11 11:31:21;;;;;;;5.90;5.47;;;25.30;99.90;;;;;;5097757;28;20468;-82
2022/05/11 11:34:23;;;;;;;6.20;5.60;;;25.30;99.90;;;;;;5097523;28;20429;-83
2022/05/11 11:36:49;;;;;;;10.17;6.60;;;25.20;99.90;;;;;;5097855;28;20484;-81
2022/05/11 11:39:52;;;;;;;15.33;13.73;;;25.30;99.90;;;;;;5098549;28;20942;-82
2022/05/11 11:42:33;;;;;;;6.73;6.07;;;25.30;99.90;;;;;;5097421;28;20401;-83
2022/05/11 11:44:59;;;;;;;7.00;6.40;;;25.30;99.90;;;;;;5097410;28;20428;-83
2022/05/11 11:47:42;;;;;;;5.77;5.37;;;25.20;99.90;;;;;;5097899;28;20437;-83
2022/05/11 11:50:14;;;;;;;7.70;6.20;;;25.20;99.90;;;;;;5095683;28;20440;-83
2022/05/11 11:52:44;;;;;;;8.63;5.73;;;25.40;99.90;;;;;;5092790;28;20421;-83
2022/05/11 11:55:25;;;;;;;9.20;5.17;;;25.70;99.90;;;;;;5094864;28;20444;-83
2022/05/11 11:57:56;;;;;;;8.20;5.40;;;25.80;99.90;;;;;;5094057;28;20527;-81
2022/05/11 12:00:53;;;;;;;9.57;5.70;;;25.80;99.90;;;;;;5093950;28;20595;-81
2022/05/11 12:03:23;;;;;;;9.10;6.47;;;25.80;99.90;;;;;;5098472;28;20507;-81
2022/05/11 12:05:54;;;;;;;6.30;5.80;;;25.60;99.90;;;;;;5097372;28;20489;-82
2022/05/11 12:16:52;;;;;;;9.80;5.60;;;26.10;99.90;;;;;;5090693;28;20545;-81
2022/05/11 12:19:19;;;;;;;8.40;4.90;;;26.30;99.90;;;;;;5092274;28;20433;-82
2022/05/11 12:22:01;;;;;;;5.40;4.90;;;26.60;95.90;;;;;;5096253;28;20470;-83
2022/05/11 12:24:30;;;;;;;5.43;4.90;;;27.20;95.50;;;;;;5095160;28;20485;-82
2022/05/11 12:27:00;;;;;;;9.83;4.83;;;26.70;95.70;;;;;;5092221;28;20456;-82
2022/05/11 12:32:20;;;;;;;7.80;4.17;;;26.60;97.30;;;;;;5095659;28;20392;-82
2022/05/11 12:34:47;;;;;;;6.37;5.73;;;26.30;91.80;;;;;;5095216;28;20432;-82
2022/05/11 12:37:27;;;;;;;7.33;4.80;;;26.30;92.60;;;;;;5089733;28;20533;-83
2022/05/11 12:39:59;;;;;;;9.00;4.80;;;26.40;94.00;;;;;;5090114;28;20429;-82
2022/05/11 12:42:36;;;;;;;8.73;4.80;;;26.30;93.00;;;;;;5095297;28;20441;-81
2022/05/11 12:45:05;;;;;;;6.73;4.77;;;26.20;95.10;;;;;;5092472;28;20896;-82
2022/05/11 12:47:32;;;;;;;5.27;4.93;;;26.30;96.10;;;;;;5094054;28;20468;-82
2022/05/11 12:49:59;;;;;;;6.13;4.60;;;26.40;93.10;;;;;;5096611;28;20450;-81
2022/05/11 12:52:28;;;;;;;4.60;4.20;;;26.60;93.20;;;;;;5096472;28;20452;-81
2022/05/11 12:55:07;;;;;;;8.20;5.30;;;26.70;97.40;;;;;;5094527;28;20459;-82
2022/05/11 12:57:36;;;;;;;6.20;5.30;;;26.60;98.40;;;;;;5093783;28;20488;-82
2022/05/11 13:00:16;;;;;;;6.97;4.70;;;26.60;95.40;;;;;;5094986;28;20471;-83
2022/05/11 13:02:45;;;;;;;5.00;4.47;;;26.70;93.40;;;;;;5093831;28;20440;-83
2022/05/11 13:05:16;;;;;;;12.33;5.77;;;26.80;94.40;;;;;;5093750;28;20453;-83
2022/05/11 13:07:50;;;;;;;7.13;5.30;;;26.50;92.30;;;;;;5088684;28;20464;-81
2022/05/11 13:10:23;;;;;;;7.23;5.33;;;26.40;93.80;;;;;;5094319;28;20429;-82
2022/05/11 13:12:55;;;;;;;6.40;4.80;;;26.40;92.30;;;;;;5092997;28;20449;-83
2022/05/11 13:15:37;;;;;;;9.80;5.10;;;26.40;96.40;;;;;;5093980;28;20429;-81
2022/05/11 13:18:05;;;;;;;4.70;4.30;;;26.70;94.60;;;;;;5095687;28;20999;-80
2022/05/11 13:20:37;;;;;;;7.47;5.23;;;26.70;95.50;;;;;;5094604;28;20437;-83
2022/05/11 13:23:12;;;;;;;9.83;6.10;;;26.60;92.70;;;;;;5095069;28;20425;-81
2022/05/11 13:25:47;;;;;;;13.87;12.37;;;26.50;96.30;;;;;;5094470;28;20424;-80
2022/05/11 13:28:21;;;;;;;17.90;15.57;;;26.60;96.80;;;;;;5095121;28;20489;-81
2022/05/11 13:30:48;;;;;;;8.53;6.47;;;26.70;96.30;;;;;;5095187;28;20428;-82
2022/05/11 13:33:40;;;;;;;7.80;5.13;;;26.50;96.50;;;;;;5096014;28;20445;-82
2022/05/11 13:38:48;;;;;;;5.67;5.20;;;26.30;95.30;;;;;;5102769;28;20480;-85
2022/05/11 13:41:19;;;;;;;9.63;5.50;;;26.20;93.30;;;;;;5103978;28;20495;-85
2022/05/11 13:43:48;;;;;;;4.90;4.50;;;26.50;93.40;;;;;;5104735;28;20461;-84
2022/05/11 13:46:38;;;;;;;7.73;7.00;;;26.30;99.10;;;;;;5109972;28;20501;-84
2022/05/11 13:49:23;;;;;;;5.50;4.73;;;26.60;93.90;;;;;;5111755;28;20436;-84